Time;durP1;ratioP1;P1;durP2;ratioP2;P2;SDS_P1;SDS_P2;PMS_P1;PMS_P2;Temp;Humidity;BMP_temperature;BMP_pressure;BME280_temperature;BME280_humidity;BME280_pressure;Samples;Min_cycle;Max_cycle;Signal;HPM_P1;HPM_P2
2021/12/05 00:20:46;;;;;;;76.60;33.40;;;2.90;98.20;;;;;;5020313;28;20025;-77
2021/12/05 00:23:18;;;;;;;31.23;16.02;;;2.90;98.00;;;;;;5021044;28;20235;-77
2021/12/05 00:25:48;;;;;;;21.92;11.55;;;2.90;97.80;;;;;;5006962;28;20025;-78
2021/12/05 00:55:29;;;;;;;22.10;12.27;;;2.90;97.50;;;;;;4943113;29;20526;-79
2021/12/05 01:14:26;;;;;;;15.70;8.82;;;3.00;98.00;;;;;;4854774;29;20076;-77
2021/12/05 01:16:52;;;;;;;15.93;8.23;;;3.00;98.20;;;;;;4853650;29;20056;-78
2021/12/05 01:19:21;;;;;;;15.02;8.23;;;3.10;98.10;;;;;;4849859;29;20044;-77
2021/12/05 01:21:52;;;;;;;14.82;8.40;;;3.10;98.10;;;;;;4845317;29;20034;-76
2021/12/05 01:26:58;;;;;;;15.98;8.52;;;3.10;97.90;;;;;;4881318;29;20036;-77
2021/12/05 01:55:37;;;;;;;27.75;13.02;;;3.20;97.80;;;;;;5023415;28;20060;-78
2021/12/05 01:58:30;;;;;;;24.65;12.40;;;3.30;98.10;;;;;;5027659;28;20174;-77
2021/12/05 02:41:39;;;;;;;32.75;17.00;;;3.50;98.40;;;;;;5018340;28;20104;-76
2021/12/05 02:44:40;;;;;;;30.38;15.40;;;3.50;98.40;;;;;;5018871;28;20168;-77
2021/12/05 02:47:07;;;;;;;30.15;14.88;;;3.50;98.30;;;;;;5019283;28;20541;-77
2021/12/05 02:49:39;;;;;;;26.60;13.57;;;3.60;98.00;;;;;;5019667;28;20062;-78
2021/12/05 02:52:10;;;;;;;26.27;14.70;;;3.50;98.10;;;;;;5018734;28;20014;-77
2021/12/05 02:54:44;;;;;;;25.02;12.25;;;3.60;98.00;;;;;;5018405;28;20338;-79
2021/12/05 02:57:10;;;;;;;24.83;13.02;;;3.60;97.90;;;;;;5019692;28;20028;-76
2021/12/05 03:02:09;;;;;;;31.35;15.85;;;3.90;96.60;;;;;;5018608;28;20594;-76
2021/12/05 03:04:37;;;;;;;18.23;9.68;;;4.00;96.70;;;;;;5018420;28;20030;-77
2021/12/05 03:07:07;;;;;;;14.73;6.55;;;4.20;95.80;;;;;;5016336;28;20435;-76
2021/12/05 03:09:33;;;;;;;5.80;3.08;;;4.40;95.10;;;;;;5017657;28;20037;-77
2021/12/05 03:12:00;;;;;;;5.72;1.60;;;4.90;93.30;;;;;;5018406;28;20370;-77
2021/12/05 03:14:26;;;;;;;1.05;0.90;;;5.40;92.30;;;;;;5016682;28;20159;-77
2021/12/05 03:16:52;;;;;;;0.70;0.57;;;5.70;91.20;;;;;;5019005;28;20030;-77
2021/12/05 03:19:18;;;;;;;1.92;0.80;;;6.10;90.00;;;;;;5018338;28;20317;-77
2021/12/05 03:21:47;;;;;;;1.25;0.43;;;6.40;88.80;;;;;;5018554;28;20025;-77
2021/12/05 03:24:15;;;;;;;2.15;0.77;;;6.70;86.40;;;;;;5019088;28;20037;-80
2021/12/05 03:26:45;;;;;;;1.67;0.82;;;5.60;84.30;;;;;;5019139;28;20077;-77
2021/12/05 03:29:14;;;;;;;3.95;0.52;;;7.00;84.10;;;;;;5018845;28;20033;-77
2021/12/05 03:31:41;;;;;;;1.58;0.70;;;7.10;82.80;;;;;;5019334;28;20128;-77
2021/12/05 03:34:10;;;;;;;0.82;0.52;;;7.20;82.60;;;;;;5018923;28;20712;-77
2021/12/05 03:36:41;;;;;;;1.08;0.45;;;7.20;82.30;;;;;;5019576;28;20326;-77
2021/12/05 03:39:09;;;;;;;0.98;0.35;;;7.30;81.60;;;;;;5018095;28;20017;-77
2021/12/05 03:41:36;;;;;;;1.23;0.63;;;7.30;81.20;;;;;;5021886;28;20558;-77
2021/12/05 03:44:04;;;;;;;2.97;0.40;;;7.40;81.10;;;;;;5022079;28;20322;-78
2021/12/05 03:46:30;;;;;;;0.75;0.40;;;7.60;80.80;;;;;;5022260;28;20021;-78
2021/12/05 03:48:59;;;;;;;1.48;0.40;;;7.60;80.40;;;;;;5022109;28;20049;-78
2021/12/05 03:51:29;;;;;;;1.45;0.40;;;7.60;79.20;;;;;;5022411;28;20155;-80
2021/12/05 03:53:55;;;;;;;1.77;0.70;;;7.70;79.30;;;;;;5022885;28;20511;-78
2021/12/05 03:56:22;;;;;;;0.57;0.50;;;7.70;79.50;;;;;;5021749;28;20044;-78
2021/12/05 03:58:49;;;;;;;2.38;0.45;;;7.70;79.40;;;;;;5020883;28;20037;-78
2021/12/05 04:01:16;;;;;;;2.13;0.60;;;7.70;78.90;;;;;;5020061;28;20033;-77
2021/12/05 04:03:44;;;;;;;0.50;0.40;;;7.60;80.00;;;;;;5023619;28;20095;-80
2021/12/05 04:06:12;;;;;;;1.48;0.60;;;7.60;80.30;;;;;;5023706;28;20021;-77
2021/12/05 04:08:41;;;;;;;1.63;0.80;;;7.60;80.90;;;;;;5021395;28;20036;-77
2021/12/05 04:11:27;;;;;;;1.80;0.47;;;7.60;81.30;;;;;;5023545;28;20017;-79
2021/12/05 04:13:53;;;;;;;5.65;1.23;;;7.50;82.30;;;;;;5023384;28;20459;-77
2021/12/05 04:16:19;;;;;;;3.15;1.60;;;7.40;84.80;;;;;;5023964;28;20018;-80
2021/12/05 04:18:46;;;;;;;3.72;0.50;;;7.20;85.20;;;;;;5023585;28;20056;-79
2021/12/05 04:21:13;;;;;;;0.52;0.50;;;7.30;83.30;;;;;;5024235;28;20037;-78
2021/12/05 04:23:39;;;;;;;1.08;0.43;;;7.50;82.60;;;;;;5024713;28;20040;-77
2021/12/05 04:26:05;;;;;;;2.90;0.50;;;7.60;81.60;;;;;;5024463;28;20033;-78
2021/12/05 04:28:31;;;;;;;0.93;0.55;;;7.80;80.40;;;;;;5021313;28;20045;-79
2021/12/05 04:30:57;;;;;;;0.60;0.40;;;7.80;80.50;;;;;;5023424;28;20379;-79
2021/12/05 04:33:24;;;;;;;1.67;0.60;;;7.90;79.60;;;;;;5022278;28;20440;-78
2021/12/05 04:35:49;;;;;;;0.50;0.50;;;7.90;78.70;;;;;;5020827;28;20042;-78
2021/12/05 04:38:15;;;;;;;0.90;0.52;;;7.90;79.10;;;;;;5003224;28;20488;-79
2021/12/05 04:40:42;;;;;;;1.88;0.57;;;8.00;79.00;;;;;;5022769;28;20428;-79
2021/12/05 04:43:08;;;;;;;1.35;0.68;;;8.00;78.20;;;;;;5020292;28;20099;-79
2021/12/05 04:45:35;;;;;;;0.85;0.55;;;8.10;78.40;;;;;;5021230;28;20025;-80
2021/12/05 04:48:04;;;;;;;2.78;0.60;;;8.10;78.50;;;;;;5021142;28;20044;-79
2021/12/05 04:50:30;;;;;;;1.02;0.60;;;8.10;79.30;;;;;;5021099;28;20033;-78
2021/12/05 04:52:56;;;;;;;5.07;1.60;;;8.10;78.70;;;;;;5019950;28;20022;-79
2021/12/05 04:55:22;;;;;;;2.67;0.73;;;8.10;79.40;;;;;;5021157;28;20029;-79
2021/12/05 04:57:48;;;;;;;1.08;0.88;;;8.10;80.50;;;;;;5020690;28;20379;-79
2021/12/05 05:00:27;;;;;;;1.35;0.85;;;8.00;82.20;;;;;;5020392;28;20471;-79
2021/12/05 05:02:54;;;;;;;1.35;0.50;;;8.00;82.10;;;;;;5020384;28;20021;-79
2021/12/05 05:05:21;;;;;;;0.65;0.65;;;8.00;81.70;;;;;;5021793;28;20030;-79
2021/12/05 05:07:49;;;;;;;1.27;0.80;;;8.00;81.60;;;;;;5019972;28;20408;-79
2021/12/05 05:10:23;;;;;;;0.82;0.70;;;7.90;81.70;;;;;;5021080;28;20033;-79
2021/12/05 05:12:49;;;;;;;3.80;0.98;;;7.90;82.50;;;;;;5019446;28;20029;-79
2021/12/05 05:15:20;;;;;;;0.88;0.60;;;7.80;82.60;;;;;;5022161;28;20010;-79
2021/12/05 05:17:48;;;;;;;1.48;0.73;;;7.80;83.10;;;;;;5021728;28;20219;-79
2021/12/05 05:20:29;;;;;;;1.33;0.52;;;7.80;83.30;;;;;;5025880;28;20041;-78
2021/12/05 05:26:13;;;;;;;2.22;1.35;;;7.80;83.50;;;;;;5028262;28;20029;-79
2021/12/05 05:45:28;;;;;;;2.78;1.00;;;6.60;90.20;;;;;;5017118;28;20037;-79
2021/12/05 05:47:38;;;;;;;4.53;1.65;;;6.60;89.80;;;;;;5011711;28;20030;-78
2021/12/05 05:50:04;;;;;;;3.83;2.33;;;7.80;90.80;;;;;;5000443;28;20060;-79
2021/12/05 05:52:31;;;;;;;4.63;2.15;;;8.30;91.60;;;;;;5017026;28;20053;-79
2021/12/05 05:54:59;;;;;;;2.67;1.85;;;6.20;91.80;;;;;;5017765;28;20032;-79
2021/12/05 05:57:32;;;;;;;3.10;1.55;;;6.10;92.30;;;;;;5016678;28;20022;-79
2021/12/05 06:00:08;;;;;;;3.92;1.08;;;6.10;92.60;;;;;;5016867;28;20133;-79
2021/12/05 06:05:18;;;;;;;3.78;1.30;;;6.30;92.60;;;;;;5016992;28;20048;-80
2021/12/05 06:07:45;;;;;;;31.45;12.35;;;6.50;92.10;;;;;;5016655;28;20330;-81
2021/12/05 06:10:18;;;;;;;20.35;8.75;;;6.60;92.00;;;;;;5018446;28;20273;-79
2021/12/05 06:12:44;;;;;;;12.50;5.82;;;6.50;92.00;;;;;;5018750;28;20079;-78
2021/12/05 06:15:12;;;;;;;9.35;3.97;;;6.40;92.10;;;;;;5018357;28;20095;-78
2021/12/05 06:17:39;;;;;;;45.67;12.48;;;6.40;92.40;;;;;;5021928;28;20519;-80
2021/12/05 06:20:08;;;;;;;43.75;15.38;;;6.30;92.70;;;;;;5026163;28;20030;-78
2021/12/05 06:22:34;;;;;;;16.00;6.57;;;6.30;93.00;;;;;;5026008;28;20087;-81
2021/12/05 06:25:01;;;;;;;25.83;10.88;;;6.20;93.20;;;;;;5027988;28;20029;-80
2021/12/05 06:27:26;;;;;;;41.85;16.75;;;6.20;93.40;;;;;;5027064;28;20199;-80
2021/12/05 06:30:04;;;;;;;31.52;13.45;;;6.30;93.60;;;;;;5025465;28;20678;-80
2021/12/05 06:40:33;;;;;;;9.63;4.82;;;6.20;93.60;;;;;;5021634;28;20045;-79
2021/12/05 06:43:16;;;;;;;8.63;5.60;;;6.10;93.70;;;;;;5022402;28;20061;-79
2021/12/05 06:48:26;;;;;;;5.85;3.13;;;5.90;94.20;;;;;;5022259;28;20055;-79
2021/12/05 06:50:52;;;;;;;8.65;3.40;;;5.80;94.30;;;;;;5023334;28;20321;-80
2021/12/05 06:53:18;;;;;;;12.65;6.00;;;5.80;94.40;;;;;;5022193;28;20230;-80
2021/12/05 06:55:44;;;;;;;7.85;5.60;;;5.70;94.80;;;;;;5027112;28;20113;-80
2021/12/05 06:58:10;;;;;;;9.55;4.82;;;5.70;94.90;;;;;;5029414;28;20025;-80
2021/12/05 07:00:35;;;;;;;9.10;5.80;;;5.60;95.00;;;;;;5024961;28;20037;-79
2021/12/05 07:03:01;;;;;;;24.80;10.93;;;5.50;95.10;;;;;;5022081;28;20113;-79
2021/12/05 07:07:54;;;;;;;11.95;5.60;;;5.50;95.10;;;;;;5019752;28;20032;-79
2021/12/05 07:10:22;;;;;;;9.55;5.53;;;5.40;95.30;;;;;;5019595;28;20256;-79
2021/12/05 07:15:39;;;;;;;10.23;5.97;;;5.40;95.60;;;;;;5022219;28;20029;-80
2021/12/05 07:23:40;;;;;;;8.00;4.28;;;5.40;95.60;;;;;;5023192;28;20034;-80
2021/12/05 07:42:38;;;;;;;16.80;8.38;;;5.50;96.30;;;;;;5020606;28;20269;-80
2021/12/05 07:45:07;;;;;;;15.57;7.57;;;5.60;96.20;;;;;;5019756;28;20037;-79
2021/12/05 07:47:34;;;;;;;14.35;7.22;;;5.60;96.30;;;;;;5020145;28;20033;-80
2021/12/05 07:50:08;;;;;;;12.50;7.05;;;5.60;96.30;;;;;;5021302;28;20289;-78
2021/12/05 07:52:38;;;;;;;15.68;8.60;;;5.60;96.10;;;;;;5020077;28;20132;-79
2021/12/05 07:55:14;;;;;;;13.75;7.63;;;5.70;96.10;;;;;;5018618;28;20136;-80
2021/12/05 07:58:01;;;;;;;;;;;5.70;96.20;;;;;;5022569;28;20030;-79
2021/12/05 08:00:44;;;;;;;10.38;5.88;;;5.90;95.90;;;;;;5025905;28;19924;-79
2021/12/05 08:16:53;;;;;;;14.88;8.02;;;6.50;95.00;;;;;;5025461;28;20256;-79
2021/12/05 08:19:18;;;;;;;13.27;6.38;;;6.60;94.90;;;;;;5032515;28;20487;-81
2021/12/05 08:21:45;;;;;;;28.77;14.05;;;6.70;94.70;;;;;;5028074;28;20063;-79
2021/12/05 08:24:12;;;;;;;13.63;6.70;;;6.80;94.60;;;;;;5028198;28;20072;-79
2021/12/05 08:26:38;;;;;;;16.02;7.13;;;7.00;94.30;;;;;;5027858;28;20025;-79
2021/12/05 08:29:13;;;;;;;18.92;8.07;;;7.10;94.40;;;;;;5025458;28;20210;-79
2021/12/05 10:38:07;;;;;;;35.28;17.67;;;9.10;92.50;;;;;;5024664;28;20116;-79
2021/12/05 10:40:43;;;;;;;22.70;12.45;;;8.70;92.70;;;;;;5022023;28;20520;-76
2021/12/05 10:43:28;;;;;;;25.30;13.93;;;8.50;93.20;;;;;;5020446;28;20333;-78
2021/12/05 10:46:03;;;;;;;28.40;13.60;;;8.40;94.10;;;;;;5023144;28;20447;-76
2021/12/05 10:48:48;;;;;;;31.02;15.60;;;7.90;94.60;;;;;;5022477;28;20029;-76
2021/12/05 10:51:20;;;;;;;30.65;15.32;;;7.60;96.00;;;;;;5020650;28;20036;-76
2021/12/05 10:53:53;;;;;;;36.85;16.77;;;7.40;96.50;;;;;;5021108;28;20708;-80
2021/12/05 10:56:23;;;;;;;36.03;16.58;;;7.10;97.00;;;;;;5020416;28;20163;-76
2021/12/05 10:58:52;;;;;;;30.00;15.65;;;5.70;97.70;;;;;;5018389;28;20067;-77
2021/12/05 11:01:19;;;;;;;36.25;17.20;;;6.70;98.40;;;;;;5016653;28;20022;-76
2021/12/05 11:03:47;;;;;;;32.72;17.20;;;6.60;99.00;;;;;;5019286;28;20196;-78
2021/12/05 11:06:31;;;;;;;32.15;16.27;;;6.60;99.40;;;;;;5022585;28;20033;-79
2021/12/05 11:09:01;;;;;;;32.75;15.88;;;6.40;99.90;;;;;;5020074;28;20049;-80
2021/12/05 11:11:27;;;;;;;24.00;13.20;;;6.40;99.90;;;;;;5018464;28;20034;-78
2021/12/05 11:13:54;;;;;;;25.63;13.45;;;6.30;99.90;;;;;;5019106;28;20091;-75
2021/12/05 11:16:38;;;;;;;26.08;13.98;;;6.30;99.90;;;;;;5022398;28;20663;-76
2021/12/05 11:19:16;;;;;;;32.33;15.55;;;6.40;99.90;;;;;;5019643;28;20029;-77
2021/12/05 11:21:47;;;;;;;27.58;14.20;;;6.40;99.90;;;;;;5020294;28;20630;-78
2021/12/05 11:24:20;;;;;;;26.70;14.75;;;6.40;99.90;;;;;;5017864;28;20508;-78
2021/12/05 11:27:04;;;;;;;28.33;14.63;;;6.40;99.90;;;;;;5018030;28;20021;-78
2021/12/05 11:29:49;;;;;;;31.77;14.77;;;6.30;99.90;;;;;;5020326;28;20025;-79
2021/12/05 11:32:32;;;;;;;25.73;13.63;;;6.30;99.90;;;;;;5022679;28;20022;-77
2021/12/05 11:34:58;;;;;;;25.45;13.52;;;6.30;99.90;;;;;;5021703;28;20022;-75
2021/12/05 11:37:23;;;;;;;31.33;15.07;;;6.30;99.90;;;;;;5020825;28;20021;-76
2021/12/05 11:39:50;;;;;;;31.92;17.23;;;6.30;99.90;;;;;;5019163;28;20021;-75
2021/12/05 11:42:19;;;;;;;48.72;25.10;;;6.30;99.90;;;;;;5020464;28;20036;-75
2021/12/05 11:44:46;;;;;;;58.63;31.35;;;6.40;99.90;;;;;;5019789;28;20053;-80
2021/12/05 11:47:18;;;;;;;58.05;27.48;;;6.40;99.90;;;;;;5020626;28;20376;-75
2021/12/05 11:49:44;;;;;;;39.55;21.83;;;6.40;99.90;;;;;;5022285;28;20033;-76
2021/12/05 11:52:11;;;;;;;32.28;16.85;;;6.30;99.90;;;;;;5021149;28;20026;-76
2021/12/05 11:54:41;;;;;;;33.85;17.17;;;6.30;99.90;;;;;;5020671;28;20037;-76
2021/12/05 11:57:12;;;;;;;35.80;18.98;;;6.30;99.90;;;;;;5019677;28;20013;-75
2021/12/05 11:59:47;;;;;;;32.15;17.90;;;6.30;99.90;;;;;;5019511;28;20045;-75
2021/12/05 12:02:35;;;;;;;35.33;18.23;;;6.40;99.90;;;;;;5020893;28;20026;-74
2021/12/05 12:05:07;;;;;;;32.33;17.38;;;6.40;99.90;;;;;;5023291;28;20045;-77
2021/12/05 12:07:52;;;;;;;36.88;17.77;;;6.40;99.90;;;;;;5028070;28;20026;-75
2021/12/05 12:10:25;;;;;;;36.95;19.00;;;6.50;99.90;;;;;;5025369;28;20026;-76
2021/12/05 12:12:54;;;;;;;51.35;25.58;;;6.50;99.90;;;;;;5021958;28;20041;-75
2021/12/05 12:15:21;;;;;;;148.65;68.53;;;6.50;99.90;;;;;;5026898;28;20029;-74
2021/12/05 12:17:50;;;;;;;76.70;37.67;;;6.50;99.90;;;;;;5023274;28;20025;-75
2021/12/05 12:20:22;;;;;;;63.50;32.88;;;6.50;99.90;;;;;;5026949;28;20029;-74
2021/12/05 12:22:50;;;;;;;52.50;28.00;;;6.50;99.90;;;;;;5027310;28;20034;-75
2021/12/05 12:25:21;;;;;;;69.75;36.35;;;6.50;99.90;;;;;;5023681;28;20026;-75
2021/12/05 12:27:48;;;;;;;91.13;42.67;;;6.50;99.90;;;;;;5026247;28;20018;-79
2021/12/05 12:30:24;;;;;;;72.70;36.67;;;6.50;99.90;;;;;;5029284;28;20017;-77
2021/12/05 12:32:53;;;;;;;124.97;57.67;;;6.40;99.90;;;;;;5025834;28;20045;-76
2021/12/05 12:35:24;;;;;;;118.57;53.45;;;6.40;99.90;;;;;;5028419;28;20498;-77
2021/12/05 12:37:57;;;;;;;198.02;80.43;;;6.30;99.90;;;;;;5031436;28;20021;-77
2021/12/05 12:40:45;;;;;;;183.07;73.63;;;6.30;99.90;;;;;;5025388;28;20079;-78
2021/12/05 12:43:43;;;;;;;149.82;63.65;;;6.30;99.90;;;;;;5021354;28;20091;-78
2021/12/05 12:46:17;;;;;;;62.08;31.15;;;6.30;99.90;;;;;;5021102;28;20060;-78
2021/12/05 12:48:47;;;;;;;58.58;30.35;;;6.30;99.90;;;;;;5022068;28;20026;-76
2021/12/05 12:51:36;;;;;;;61.22;30.65;;;6.30;99.90;;;;;;5020583;28;20680;-78
2021/12/05 12:54:09;;;;;;;63.90;33.40;;;6.40;99.90;;;;;;5019640;28;20587;-78
2021/12/05 12:56:35;;;;;;;78.32;40.08;;;6.40;99.90;;;;;;5020780;28;20049;-78
2021/12/05 12:59:06;;;;;;;95.88;49.88;;;6.30;99.90;;;;;;5020504;28;20048;-80
2021/12/05 13:10:16;;;;;;;63.13;35.10;;;6.30;99.90;;;;;;5020043;28;20083;-79
2021/12/05 13:12:42;;;;;;;78.75;44.58;;;6.30;99.90;;;;;;5018929;28;20171;-79
2021/12/05 13:15:16;;;;;;;77.32;43.15;;;8.00;99.90;;;;;;5020219;28;20104;-79
2021/12/05 13:17:41;;;;;;;72.53;40.50;;;6.40;99.90;;;;;;5019825;28;20527;-78
2021/12/05 13:20:11;;;;;;;79.60;40.08;;;6.50;99.90;;;;;;5020338;28;20029;-79
2021/12/05 13:23:01;;;;;;;67.97;37.65;;;6.60;99.90;;;;;;5019579;28;20029;-79
2021/12/05 13:25:28;;;;;;;66.25;35.78;;;6.60;99.90;;;;;;4996986;28;20709;-79
2021/12/05 13:27:56;;;;;;;66.00;36.92;;;6.60;99.90;;;;;;4996824;28;20042;-79
2021/12/05 13:30:34;;;;;;;64.60;36.45;;;6.70;99.90;;;;;;4980111;28;20101;-79
2021/12/05 13:33:20;;;;;;;65.95;36.15;;;6.70;99.90;;;;;;4996574;28;20030;-79
2021/12/05 13:35:46;;;;;;;48.38;29.00;;;6.80;99.90;;;;;;4997082;28;20058;-77
2021/12/05 13:38:50;;;;;;;47.88;25.73;;;6.80;99.90;;;;;;4997146;28;20026;-78
2021/12/05 13:41:19;;;;;;;40.45;23.23;;;6.80;99.90;;;;;;4939047;29;20112;-77
2021/12/05 13:44:13;;;;;;;49.10;25.40;;;6.80;99.90;;;;;;4938545;29;20044;-77
2021/12/05 13:46:42;;;;;;;35.40;19.55;;;6.90;99.90;;;;;;4938342;28;20037;-79
2021/12/05 13:49:35;;;;;;;46.70;24.05;;;6.90;99.90;;;;;;4939142;28;20155;-78
2021/12/05 13:52:28;;;;;;;39.50;20.15;;;7.00;99.90;;;;;;4938381;28;20938;-78
2021/12/05 13:54:53;;;;;;;26.00;13.35;;;7.10;99.80;;;;;;4937284;28;20121;-79
2021/12/05 13:57:20;;;;;;;16.05;8.90;;;7.10;99.70;;;;;;4939135;28;20844;-79
2021/12/05 13:59:46;;;;;;;24.30;11.38;;;7.10;98.90;;;;;;4939994;29;20565;-79
2021/12/05 14:02:13;;;;;;;30.67;14.20;;;7.00;99.00;;;;;;4939318;29;20091;-78
2021/12/05 14:04:39;;;;;;;23.17;10.00;;;7.40;99.20;;;;;;4939555;29;20088;-79
2021/12/05 14:07:06;;;;;;;27.75;11.55;;;7.00;98.70;;;;;;4938531;29;20103;-79
2021/12/05 14:09:43;;;;;;;21.92;10.15;;;6.90;98.70;;;;;;4938951;29;20058;-79
2021/12/05 14:12:11;;;;;;;;;;;6.90;98.60;;;;;;4960224;28;20035;-78
2021/12/05 14:14:42;;;;;;;20.92;10.40;;;6.90;98.80;;;;;;4978292;28;19906;-79
2021/12/05 14:17:15;;;;;;;13.50;7.63;;;6.80;99.00;;;;;;4978121;28;20034;-79
2021/12/05 14:19:42;;;;;;;11.07;5.90;;;6.70;98.90;;;;;;4978834;28;20713;-80
2021/12/05 14:22:12;;;;;;;40.60;21.67;;;6.60;98.90;;;;;;4950188;28;20074;-78
2021/12/05 14:24:44;;;;;;;50.03;22.77;;;6.50;99.80;;;;;;5018639;28;20060;-78
2021/12/05 14:27:14;;;;;;;314.77;103.22;;;6.50;99.90;;;;;;5018487;28;20431;-79
2021/12/05 14:29:43;;;;;;;36.75;16.38;;;6.50;99.90;;;;;;5019972;28;20033;-78
2021/12/05 14:32:15;;;;;;;25.10;13.55;;;6.50;99.90;;;;;;5019856;28;20029;-79
2021/12/05 14:34:42;;;;;;;30.58;16.95;;;6.40;99.90;;;;;;5020994;28;20025;-79
2021/12/05 14:37:19;;;;;;;64.22;33.72;;;6.40;99.90;;;;;;5020906;28;20064;-79
2021/12/05 14:39:47;;;;;;;48.60;27.63;;;6.40;99.90;;;;;;5021916;28;20084;-79
2021/12/05 14:42:18;;;;;;;26.42;15.50;;;6.30;99.90;;;;;;5024428;28;20021;-79
2021/12/05 14:44:49;;;;;;;26.92;13.27;;;6.40;99.90;;;;;;5023974;28;20037;-80
2021/12/05 14:47:18;;;;;;;16.55;8.15;;;6.30;99.90;;;;;;5025309;28;20020;-79
2021/12/05 14:49:55;;;;;;;21.25;10.88;;;6.30;99.90;;;;;;5026710;28;20085;-79
2021/12/05 14:52:28;;;;;;;69.00;24.75;;;6.30;99.90;;;;;;5024925;28;20468;-79
2021/12/05 14:54:55;;;;;;;139.93;46.47;;;6.30;99.80;;;;;;5020094;28;20112;-79
2021/12/05 14:57:33;;;;;;;152.50;50.47;;;6.30;99.90;;;;;;5020636;28;20010;-78
2021/12/05 15:00:17;;;;;;;63.70;24.80;;;6.30;99.80;;;;;;5020908;28;20814;-79
2021/12/05 15:02:43;;;;;;;81.10;30.20;;;6.20;99.70;;;;;;5021174;28;20648;-80
2021/12/05 15:05:12;;;;;;;64.80;24.55;;;6.20;99.80;;;;;;5022473;28;20084;-79
2021/12/05 15:07:38;;;;;;;82.82;30.00;;;6.10;99.90;;;;;;5022191;28;20056;-79
2021/12/05 15:10:05;;;;;;;55.45;19.38;;;6.00;99.90;;;;;;5022650;28;20108;-79
2021/12/05 15:12:33;;;;;;;17.20;8.77;;;6.00;99.90;;;;;;5022822;28;20014;-77
2021/12/05 15:15:15;;;;;;;19.05;8.68;;;6.00;99.90;;;;;;5019238;28;20020;-75
2021/12/05 15:17:42;;;;;;;15.63;7.10;;;6.00;99.90;;;;;;5018849;28;20017;-77
2021/12/05 15:20:15;;;;;;;18.30;8.13;;;5.90;99.90;;;;;;5019337;28;20529;-78
2021/12/05 15:22:45;;;;;;;29.08;11.00;;;5.80;99.90;;;;;;5017863;28;20109;-78
2021/12/05 15:25:18;;;;;;;14.75;8.65;;;5.80;99.90;;;;;;5019443;28;21130;-80
2021/12/05 15:27:45;;;;;;;15.02;8.82;;;5.80;99.90;;;;;;5019762;28;20560;-78
2021/12/05 15:30:16;;;;;;;32.78;12.88;;;5.70;99.90;;;;;;5018265;28;20083;-78
2021/12/05 15:32:55;;;;;;;24.70;11.65;;;5.70;99.90;;;;;;5018383;28;20085;-78
2021/12/05 15:35:23;;;;;;;158.70;43.83;;;5.30;99.90;;;;;;5017925;28;20435;-78
2021/12/05 15:37:56;;;;;;;42.88;22.92;;;5.60;99.90;;;;;;5022480;28;20085;-78
2021/12/05 15:40:25;;;;;;;47.65;26.13;;;5.50;99.90;;;;;;5022701;28;20091;-76
2021/12/05 15:42:56;;;;;;;58.83;32.22;;;5.50;99.90;;;;;;5019860;28;20136;-76
2021/12/05 15:45:22;;;;;;;66.93;38.05;;;5.50;99.90;;;;;;5022333;28;20130;-78
2021/12/05 15:47:49;;;;;;;90.32;47.88;;;5.50;99.90;;;;;;5022440;28;20492;-78
2021/12/05 15:50:14;;;;;;;88.95;47.55;;;5.50;99.90;;;;;;5023071;28;20171;-77
2021/12/05 15:52:44;;;;;;;79.85;42.10;;;5.40;99.90;;;;;;5027395;28;20064;-81
2021/12/05 15:55:27;;;;;;;98.10;52.55;;;5.40;99.90;;;;;;5023710;28;20029;-80
2021/12/05 15:58:20;;;;;;;64.10;29.45;;;5.40;99.90;;;;;;5023087;28;20645;-78
2021/12/05 16:01:12;;;;;;;68.72;27.55;;;5.40;99.90;;;;;;5021269;28;20103;-77
2021/12/05 16:03:53;;;;;;;26.77;15.40;;;5.40;99.90;;;;;;5022596;28;20336;-79
2021/12/05 16:06:29;;;;;;;19.23;11.82;;;5.40;99.90;;;;;;5023410;28;20048;-79
2021/12/05 16:08:54;;;;;;;32.57;18.83;;;5.40;99.90;;;;;;5020990;28;20049;-78
2021/12/05 16:11:21;;;;;;;29.00;15.13;;;5.50;99.90;;;;;;5021040;28;20052;-78
2021/12/05 16:13:51;;;;;;;57.97;31.50;;;5.50;99.90;;;;;;5022524;28;20113;-78
2021/12/05 16:16:22;;;;;;;90.75;48.90;;;5.50;99.90;;;;;;5025169;28;20033;-79
2021/12/05 16:18:51;;;;;;;96.88;51.22;;;5.40;99.90;;;;;;5027218;28;20013;-78
2021/12/05 16:21:20;;;;;;;95.95;50.05;;;5.40;99.90;;;;;;5022114;28;20037;-78
2021/12/05 16:23:48;;;;;;;101.32;52.33;;;5.30;99.90;;;;;;5023866;28;20037;-79
2021/12/05 16:26:21;;;;;;;85.70;46.70;;;5.30;99.90;;;;;;5022276;28;20022;-79
2021/12/05 16:28:53;;;;;;;291.23;118.50;;;5.30;99.90;;;;;;5023056;28;20027;-79
2021/12/05 16:31:26;;;;;;;128.77;62.75;;;5.20;99.90;;;;;;5023387;28;20021;-79
2021/12/05 16:33:59;;;;;;;122.15;59.72;;;5.20;99.90;;;;;;5023466;28;20099;-79
2021/12/05 16:36:32;;;;;;;115.95;57.88;;;5.10;99.90;;;;;;5022891;28;20046;-78
2021/12/05 16:39:09;;;;;;;120.13;58.38;;;5.10;99.90;;;;;;5021691;28;20053;-78
2021/12/05 16:41:35;;;;;;;109.93;54.35;;;5.10;99.90;;;;;;5022056;28;20049;-78
2021/12/05 16:44:09;;;;;;;108.80;55.92;;;5.00;99.90;;;;;;5021819;28;20037;-78
2021/12/05 16:46:47;;;;;;;122.40;60.80;;;5.10;99.90;;;;;;5020426;28;20017;-78
2021/12/05 16:49:21;;;;;;;122.22;58.70;;;5.10;99.90;;;;;;5020335;28;20030;-79
2021/12/05 16:51:47;;;;;;;128.68;63.35;;;5.10;99.90;;;;;;5021170;28;20017;-79
2021/12/05 16:54:24;;;;;;;107.28;53.17;;;5.10;99.90;;;;;;5022282;28;20053;-79
2021/12/05 16:57:11;;;;;;;93.72;46.40;;;5.10;99.90;;;;;;5020556;28;20737;-78
2021/12/05 16:59:36;;;;;;;125.43;53.42;;;5.10;99.90;;;;;;5023225;28;20053;-79
2021/12/05 17:02:14;;;;;;;143.98;62.55;;;5.10;99.90;;;;;;5022052;28;20523;-80
2021/12/05 17:04:50;;;;;;;211.10;80.55;;;5.10;99.90;;;;;;5021080;28;20040;-78
2021/12/05 17:07:35;;;;;;;241.45;87.90;;;5.10;99.90;;;;;;5021165;28;20479;-78
2021/12/05 17:10:03;;;;;;;122.10;53.58;;;5.10;99.90;;;;;;5024259;28;20033;-79
2021/12/05 17:12:32;;;;;;;166.30;70.70;;;5.10;99.90;;;;;;5028519;28;20018;-78
2021/12/05 17:15:23;;;;;;;98.00;46.70;;;5.10;99.90;;;;;;5030522;28;20022;-78
2021/12/05 17:17:53;;;;;;;88.55;44.00;;;5.00;99.90;;;;;;5023176;28;20033;-80
2021/12/05 17:20:27;;;;;;;114.45;56.25;;;5.10;99.90;;;;;;5023846;28;20056;-78
2021/12/05 17:22:58;;;;;;;108.90;53.47;;;5.20;99.90;;;;;;5020668;28;20199;-76
2021/12/05 17:25:44;;;;;;;114.70;57.38;;;5.10;99.90;;;;;;5020644;28;20241;-78
2021/12/05 17:28:18;;;;;;;219.98;91.93;;;5.20;99.90;;;;;;5019976;28;20091;-79
2021/12/05 17:30:55;;;;;;;175.77;83.95;;;5.20;99.90;;;;;;5019581;28;20022;-78
2021/12/05 17:33:45;;;;;;;145.18;72.50;;;5.20;99.90;;;;;;5020387;28;20026;-78
2021/12/05 17:36:34;;;;;;;118.28;59.17;;;5.20;99.90;;;;;;5020886;28;20029;-79
2021/12/05 17:39:13;;;;;;;118.63;59.38;;;5.20;99.90;;;;;;5020036;28;20056;-79
2021/12/05 17:41:40;;;;;;;114.10;57.22;;;5.20;99.90;;;;;;5019902;28;20057;-77
2021/12/05 17:44:07;;;;;;;110.13;57.47;;;5.20;99.90;;;;;;5021112;28;20051;-77
2021/12/05 17:46:35;;;;;;;113.55;56.42;;;5.10;99.90;;;;;;5021256;28;20029;-78
2021/12/05 17:49:02;;;;;;;112.97;56.97;;;5.00;99.90;;;;;;5019701;28;20030;-77
2021/12/05 17:51:36;;;;;;;98.30;51.03;;;5.00;99.90;;;;;;5020101;28;20239;-79
2021/12/05 17:54:03;;;;;;;104.60;49.30;;;4.90;99.90;;;;;;5020036;28;20090;-76
2021/12/05 17:56:40;;;;;;;84.65;45.08;;;4.90;99.90;;;;;;5021484;28;20014;-79
2021/12/05 17:59:13;;;;;;;236.55;90.53;;;4.70;99.90;;;;;;5020692;28;20037;-76
2021/12/05 18:04:29;;;;;;;96.40;49.00;;;4.70;99.90;;;;;;5018823;28;20737;-77
2021/12/05 18:06:56;;;;;;;88.22;48.40;;;4.70;99.90;;;;;;5019935;28;20032;-77
2021/12/05 18:09:21;;;;;;;87.65;47.33;;;4.70;99.90;;;;;;5020373;28;20507;-76
2021/12/05 18:11:47;;;;;;;87.75;45.95;;;4.80;99.90;;;;;;5019498;28;20100;-76
2021/12/05 18:14:13;;;;;;;76.97;36.85;;;4.90;99.90;;;;;;5020178;28;20572;-76
2021/12/05 18:16:39;;;;;;;71.22;34.13;;;4.90;99.90;;;;;;5019936;28;20017;-76
2021/12/05 18:19:10;;;;;;;59.88;29.02;;;4.90;99.90;;;;;;5020297;28;20025;-76
2021/12/05 18:21:38;;;;;;;51.05;26.80;;;5.00;99.90;;;;;;5018467;28;20029;-77
2021/12/05 18:24:07;;;;;;;48.95;28.23;;;4.90;99.90;;;;;;5017900;28;20045;-77
2021/12/05 18:26:34;;;;;;;42.60;25.17;;;5.00;99.90;;;;;;5017128;28;20654;-77
2021/12/05 18:29:00;;;;;;;51.33;26.52;;;5.00;99.90;;;;;;5019039;28;20028;-77
2021/12/05 18:31:28;;;;;;;47.78;26.55;;;5.00;99.90;;;;;;5019102;28;20022;-77
2021/12/05 18:34:01;;;;;;;57.58;29.27;;;5.10;99.90;;;;;;5018342;28;20022;-79
2021/12/05 18:36:29;;;;;;;52.38;27.70;;;5.00;99.90;;;;;;5018409;28;20021;-78
2021/12/05 18:38:55;;;;;;;49.33;27.38;;;5.10;99.90;;;;;;5019343;28;20109;-78
2021/12/05 18:41:21;;;;;;;55.88;29.75;;;5.00;99.90;;;;;;5019175;28;20168;-76
2021/12/05 18:43:48;;;;;;;61.80;31.88;;;5.10;99.90;;;;;;5019064;28;20034;-76
2021/12/05 18:46:14;;;;;;;73.35;37.90;;;5.10;99.90;;;;;;5017052;28;20022;-75
2021/12/05 18:48:42;;;;;;;82.72;41.33;;;5.10;99.90;;;;;;5017984;28;20105;-75
2021/12/05 18:51:09;;;;;;;84.43;40.78;;;5.20;99.90;;;;;;5018090;28;20029;-76